sensor_id;sensor_type;location;lat;lon;timestamp;temperature;humidity
12053;DHT22;6087;48.982;12.064;2022-08-19T00:01:36;21.90;99.90
12053;DHT22;6087;48.982;12.064;2022-08-19T00:04:05;22.00;99.90
12053;DHT22;6087;48.982;12.064;2022-08-19T00:06:34;21.90;99.90
12053;DHT22;6087;48.982;12.064;2022-08-19T00:09:03;21.90;99.90
12053;DHT22;6087;48.982;12.064;2022-08-19T00:11:30;21.90;99.90
12053;DHT22;6087;48.982;12.064;2022-08-19T00:13:58;21.90;99.90
12053;DHT22;6087;48.982;12.064;2022-08-19T00:16:27;21.90;99.90
12053;DHT22;6087;48.982;12.064;2022-08-19T00:18:54;21.90;99.90
12053;DHT22;6087;48.982;12.064;2022-08-19T00:21:21;21.90;99.90
12053;DHT22;6087;48.982;12.064;2022-08-19T00:23:48;21.90;99.90
12053;DHT22;6087;48.982;12.064;2022-08-19T00:26:15;21.90;99.90
12053;DHT22;6087;48.982;12.064;2022-08-19T00:28:43;21.80;99.90
12053;DHT22;6087;48.982;12.064;2022-08-19T00:31:11;21.80;99.90
12053;DHT22;6087;48.982;12.064;2022-08-19T00:33:38;21.60;99.90
12053;DHT22;6087;48.982;12.064;2022-08-19T00:36:07;21.50;99.90
12053;DHT22;6087;48.982;12.064;2022-08-19T00:38:35;21.50;99.90
12053;DHT22;6087;48.982;12.064;2022-08-19T00:41:02;21.40;99.90
12053;DHT22;6087;48.982;12.064;2022-08-19T00:43:29;21.40;99.90
12053;DHT22;6087;48.982;12.064;2022-08-19T00:45:55;21.40;99.90
12053;DHT22;6087;48.982;12.064;2022-08-19T00:48:24;21.50;99.90
12053;DHT22;6087;48.982;12.064;2022-08-19T00:50:51;21.50;99.90
12053;DHT22;6087;48.982;12.064;2022-08-19T00:53:22;21.50;99.90
12053;DHT22;6087;48.982;12.064;2022-08-19T00:55:51;21.60;99.90
12053;DHT22;6087;48.982;12.064;2022-08-19T00:58:21;21.60;99.90
12053;DHT22;6087;48.982;12.064;2022-08-19T01:00:48;21.60;99.90
12053;DHT22;6087;48.982;12.064;2022-08-19T01:03:18;21.60;99.90
12053;DHT22;6087;48.982;12.064;2022-08-19T01:05:49;21.60;99.90
12053;DHT22;6087;48.982;12.064;2022-08-19T01:08:18;21.60;99.90
12053;DHT22;6087;48.982;12.064;2022-08-19T01:10:49;21.60;99.90
12053;DHT22;6087;48.982;12.064;2022-08-19T01:13:19;21.60;99.90
12053;DHT22;6087;48.982;12.064;2022-08-19T01:15:50;21.60;99.90
12053;DHT22;6087;48.982;12.064;2022-08-19T01:18:19;21.70;99.90
12053;DHT22;6087;48.982;12.064;2022-08-19T01:20:48;21.60;99.90
12053;DHT22;6087;48.982;12.064;2022-08-19T01:23:17;21.60;99.90
12053;DHT22;6087;48.982;12.064;2022-08-19T01:25:49;21.70;99.90
12053;DHT22;6087;48.982;12.064;2022-08-19T01:28:24;21.70;99.90
12053;DHT22;6087;48.982;12.064;2022-08-19T01:30:53;21.70;99.90
12053;DHT22;6087;48.982;12.064;2022-08-19T01:33:20;21.70;99.90
12053;DHT22;6087;48.982;12.064;2022-08-19T01:35:50;21.70;99.90
12053;DHT22;6087;48.982;12.064;2022-08-19T01:38:26;21.70;99.90
12053;DHT22;6087;48.982;12.064;2022-08-19T01:40:57;21.70;99.90
12053;DHT22;6087;48.982;12.064;2022-08-19T01:43:25;21.70;99.90
12053;DHT22;6087;48.982;12.064;2022-08-19T01:45:52;21.70;99.90
12053;DHT22;6087;48.982;12.064;2022-08-19T01:48:19;21.70;99.90
12053;DHT22;6087;48.982;12.064;2022-08-19T01:50:46;21.70;99.90
12053;DHT22;6087;48.982;12.064;2022-08-19T01:53:13;21.70;99.90
12053;DHT22;6087;48.982;12.064;2022-08-19T01:55:43;21.70;99.90
12053;DHT22;6087;48.982;12.064;2022-08-19T01:58:13;21.70;99.90
12053;DHT22;6087;48.982;12.064;2022-08-19T02:00:41;21.70;99.90
12053;DHT22;6087;48.982;12.064;2022-08-19T02:03:09;21.70;99.90
12053;DHT22;6087;48.982;12.064;2022-08-19T02:05:37;21.70;99.90
12053;DHT22;6087;48.982;12.064;2022-08-19T02:08:04;21.60;99.90
12053;DHT22;6087;48.982;12.064;2022-08-19T02:10:31;21.60;99.90
12053;DHT22;6087;48.982;12.064;2022-08-19T02:12:59;21.60;99.90
12053;DHT22;6087;48.982;12.064;2022-08-19T02:15:26;21.60;99.90
12053;DHT22;6087;48.982;12.064;2022-08-19T02:17:53;21.50;99.90
12053;DHT22;6087;48.982;12.064;2022-08-19T02:20:20;21.50;99.90
12053;DHT22;6087;48.982;12.064;2022-08-19T02:22:47;21.50;99.90
12053;DHT22;6087;48.982;12.064;2022-08-19T02:25:14;21.40;99.90
12053;DHT22;6087;48.982;12.064;2022-08-19T02:27:42;21.50;99.90
12053;DHT22;6087;48.982;12.064;2022-08-19T02:30:15;21.40;99.90
12053;DHT22;6087;48.982;12.064;2022-08-19T02:32:43;21.40;99.90
12053;DHT22;6087;48.982;12.064;2022-08-19T02:35:10;21.40;99.90
12053;DHT22;6087;48.982;12.064;2022-08-19T02:37:37;21.30;99.90
12053;DHT22;6087;48.982;12.064;2022-08-19T02:40:21;21.30;99.90
12053;DHT22;6087;48.982;12.064;2022-08-19T02:42:48;21.30;99.90
12053;DHT22;6087;48.982;12.064;2022-08-19T02:45:17;21.30;99.90
12053;DHT22;6087;48.982;12.064;2022-08-19T02:47:44;21.30;99.90
12053;DHT22;6087;48.982;12.064;2022-08-19T02:50:11;21.30;99.90
12053;DHT22;6087;48.982;12.064;2022-08-19T02:52:38;21.30;99.90
12053;DHT22;6087;48.982;12.064;2022-08-19T02:55:06;21.30;99.90
12053;DHT22;6087;48.982;12.064;2022-08-19T02:57:33;21.20;99.90
12053;DHT22;6087;48.982;12.064;2022-08-19T03:00:03;21.20;99.90
12053;DHT22;6087;48.982;12.064;2022-08-19T03:02:31;21.10;99.90
12053;DHT22;6087;48.982;12.064;2022-08-19T03:04:58;21.10;99.90
12053;DHT22;6087;48.982;12.064;2022-08-19T03:07:27;21.10;99.90
12053;DHT22;6087;48.982;12.064;2022-08-19T03:09:53;21.10;99.90
12053;DHT22;6087;48.982;12.064;2022-08-19T03:12:20;21.10;99.90
12053;DHT22;6087;48.982;12.064;2022-08-19T03:14:47;21.10;99.90
12053;DHT22;6087;48.982;12.064;2022-08-19T03:17:14;21.10;99.90
12053;DHT22;6087;48.982;12.064;2022-08-19T03:19:42;21.10;99.90
12053;DHT22;6087;48.982;12.064;2022-08-19T03:22:09;21.00;99.90
12053;DHT22;6087;48.982;12.064;2022-08-19T03:24:37;21.00;99.90
12053;DHT22;6087;48.982;12.064;2022-08-19T03:27:04;20.90;99.90
12053;DHT22;6087;48.982;12.064;2022-08-19T03:29:32;20.90;99.90
12053;DHT22;6087;48.982;12.064;2022-08-19T03:32:00;20.90;99.90
12053;DHT22;6087;48.982;12.064;2022-08-19T03:34:29;20.90;99.90
12053;DHT22;6087;48.982;12.064;2022-08-19T03:37:03;20.80;99.90
12053;DHT22;6087;48.982;12.064;2022-08-19T03:39:31;20.90;99.90
12053;DHT22;6087;48.982;12.064;2022-08-19T03:41:57;20.90;99.90
12053;DHT22;6087;48.982;12.064;2022-08-19T03:44:29;20.90;99.90
12053;DHT22;6087;48.982;12.064;2022-08-19T03:46:58;20.90;99.90
12053;DHT22;6087;48.982;12.064;2022-08-19T03:49:28;21.00;99.90
12053;DHT22;6087;48.982;12.064;2022-08-19T03:51:57;21.00;99.90
12053;DHT22;6087;48.982;12.064;2022-08-19T03:54:26;21.10;99.90
12053;DHT22;6087;48.982;12.064;2022-08-19T03:56:55;21.10;99.90
12053;DHT22;6087;48.982;12.064;2022-08-19T03:59:24;21.00;99.90
12053;DHT22;6087;48.982;12.064;2022-08-19T04:01:52;21.00;99.90
12053;DHT22;6087;48.982;12.064;2022-08-19T04:04:19;20.90;99.90
12053;DHT22;6087;48.982;12.064;2022-08-19T04:06:47;20.90;99.90
12053;DHT22;6087;48.982;12.064;2022-08-19T04:09:15;20.90;99.90
12053;DHT22;6087;48.982;12.064;2022-08-19T04:11:44;21.00;99.90
12053;DHT22;6087;48.982;12.064;2022-08-19T04:14:14;21.00;99.90
12053;DHT22;6087;48.982;12.064;2022-08-19T04:16:42;21.00;99.90
12053;DHT22;6087;48.982;12.064;2022-08-19T04:19:10;21.00;99.90
12053;DHT22;6087;48.982;12.064;2022-08-19T04:21:37;21.10;99.90
12053;DHT22;6087;48.982;12.064;2022-08-19T04:24:06;21.00;99.90
12053;DHT22;6087;48.982;12.064;2022-08-19T04:26:35;21.00;99.90
12053;DHT22;6087;48.982;12.064;2022-08-19T04:29:06;21.00;99.90
12053;DHT22;6087;48.982;12.064;2022-08-19T04:31:33;21.00;99.90
12053;DHT22;6087;48.982;12.064;2022-08-19T04:34:02;21.00;99.90
12053;DHT22;6087;48.982;12.064;2022-08-19T04:36:31;21.00;99.90
12053;DHT22;6087;48.982;12.064;2022-08-19T04:39:00;21.00;99.90
12053;DHT22;6087;48.982;12.064;2022-08-19T04:41:27;21.10;99.90
12053;DHT22;6087;48.982;12.064;2022-08-19T04:44:13;21.10;99.90
12053;DHT22;6087;48.982;12.064;2022-08-19T04:46:43;21.10;99.90
12053;DHT22;6087;48.982;12.064;2022-08-19T04:49:10;21.20;99.90
12053;DHT22;6087;48.982;12.064;2022-08-19T04:51:40;21.10;99.90
12053;DHT22;6087;48.982;12.064;2022-08-19T04:54:07;21.10;99.90
12053;DHT22;6087;48.982;12.064;2022-08-19T04:56:34;21.10;99.90
12053;DHT22;6087;48.982;12.064;2022-08-19T04:59:01;21.10;99.90
12053;DHT22;6087;48.982;12.064;2022-08-19T05:01:33;21.10;99.90
12053;DHT22;6087;48.982;12.064;2022-08-19T05:04:02;21.10;99.90
12053;DHT22;6087;48.982;12.064;2022-08-19T05:06:29;21.10;99.90
12053;DHT22;6087;48.982;12.064;2022-08-19T05:08:59;21.10;99.90
12053;DHT22;6087;48.982;12.064;2022-08-19T05:11:27;21.10;99.90
12053;DHT22;6087;48.982;12.064;2022-08-19T05:13:55;21.00;99.90
12053;DHT22;6087;48.982;12.064;2022-08-19T05:16:23;21.10;99.90
12053;DHT22;6087;48.982;12.064;2022-08-19T05:18:53;21.10;99.90
12053;DHT22;6087;48.982;12.064;2022-08-19T05:21:39;21.10;99.90
12053;DHT22;6087;48.982;12.064;2022-08-19T05:24:24;21.10;99.90
12053;DHT22;6087;48.982;12.064;2022-08-19T05:26:52;21.10;99.90
12053;DHT22;6087;48.982;12.064;2022-08-19T05:29:22;21.10;99.90
12053;DHT22;6087;48.982;12.064;2022-08-19T05:31:50;21.10;99.90
12053;DHT22;6087;48.982;12.064;2022-08-19T05:34:21;21.10;99.90
12053;DHT22;6087;48.982;12.064;2022-08-19T05:36:50;21.20;99.90
12053;DHT22;6087;48.982;12.064;2022-08-19T05:39:23;21.10;99.90
12053;DHT22;6087;48.982;12.064;2022-08-19T05:41:52;21.10;99.90
12053;DHT22;6087;48.982;12.064;2022-08-19T05:44:19;21.20;99.90
12053;DHT22;6087;48.982;12.064;2022-08-19T05:46:47;21.20;99.90
12053;DHT22;6087;48.982;12.064;2022-08-19T05:49:20;21.30;99.90
12053;DHT22;6087;48.982;12.064;2022-08-19T05:51:49;21.30;99.90
12053;DHT22;6087;48.982;12.064;2022-08-19T05:54:16;21.30;99.90
12053;DHT22;6087;48.982;12.064;2022-08-19T05:56:44;21.30;99.90
12053;DHT22;6087;48.982;12.064;2022-08-19T05:59:14;21.30;99.90
12053;DHT22;6087;48.982;12.064;2022-08-19T06:01:43;21.40;99.90
12053;DHT22;6087;48.982;12.064;2022-08-19T06:04:11;21.40;99.90
12053;DHT22;6087;48.982;12.064;2022-08-19T06:06:41;21.40;99.90
12053;DHT22;6087;48.982;12.064;2022-08-19T06:09:08;21.40;99.90
12053;DHT22;6087;48.982;12.064;2022-08-19T06:11:38;21.50;99.90
12053;DHT22;6087;48.982;12.064;2022-08-19T06:14:07;21.50;99.90
12053;DHT22;6087;48.982;12.064;2022-08-19T06:16:35;21.50;99.90
12053;DHT22;6087;48.982;12.064;2022-08-19T06:19:06;21.50;99.90
12053;DHT22;6087;48.982;12.064;2022-08-19T06:21:35;21.50;99.90
12053;DHT22;6087;48.982;12.064;2022-08-19T06:24:05;21.50;99.90
12053;DHT22;6087;48.982;12.064;2022-08-19T06:26:33;21.60;99.90
12053;DHT22;6087;48.982;12.064;2022-08-19T06:29:01;21.60;99.90
12053;DHT22;6087;48.982;12.064;2022-08-19T06:31:29;21.60;99.90
12053;DHT22;6087;48.982;12.064;2022-08-19T06:33:59;21.60;99.90
12053;DHT22;6087;48.982;12.064;2022-08-19T06:36:31;21.60;99.90
12053;DHT22;6087;48.982;12.064;2022-08-19T06:39:00;21.60;99.90
12053;DHT22;6087;48.982;12.064;2022-08-19T06:41:29;21.60;99.90
12053;DHT22;6087;48.982;12.064;2022-08-19T06:43:56;21.60;99.90
12053;DHT22;6087;48.982;12.064;2022-08-19T06:46:24;21.60;99.90
12053;DHT22;6087;48.982;12.064;2022-08-19T06:48:52;21.60;99.90
12053;DHT22;6087;48.982;12.064;2022-08-19T06:51:20;21.60;99.90
12053;DHT22;6087;48.982;12.064;2022-08-19T06:53:50;21.60;99.90
12053;DHT22;6087;48.982;12.064;2022-08-19T06:56:19;21.60;99.90
12053;DHT22;6087;48.982;12.064;2022-08-19T06:58:48;21.60;99.90
12053;DHT22;6087;48.982;12.064;2022-08-19T07:01:18;21.60;99.90
12053;DHT22;6087;48.982;12.064;2022-08-19T07:03:46;21.60;99.90
12053;DHT22;6087;48.982;12.064;2022-08-19T07:06:15;21.60;99.90
12053;DHT22;6087;48.982;12.064;2022-08-19T07:08:43;21.60;99.90
12053;DHT22;6087;48.982;12.064;2022-08-19T07:11:11;21.60;99.90
12053;DHT22;6087;48.982;12.064;2022-08-19T07:13:39;21.60;99.90
12053;DHT22;6087;48.982;12.064;2022-08-19T07:16:13;21.60;99.90
12053;DHT22;6087;48.982;12.064;2022-08-19T07:18:40;21.60;99.90
12053;DHT22;6087;48.982;12.064;2022-08-19T07:21:09;21.60;99.90
12053;DHT22;6087;48.982;12.064;2022-08-19T07:23:37;21.60;99.90
12053;DHT22;6087;48.982;12.064;2022-08-19T07:29:54;21.60;99.90
12053;DHT22;6087;48.982;12.064;2022-08-19T07:32:51;21.50;99.90
12053;DHT22;6087;48.982;12.064;2022-08-19T07:35:18;21.60;99.90
12053;DHT22;6087;48.982;12.064;2022-08-19T07:37:45;21.50;99.90
12053;DHT22;6087;48.982;12.064;2022-08-19T07:40:13;21.50;99.90
12053;DHT22;6087;48.982;12.064;2022-08-19T07:42:40;21.50;99.90
12053;DHT22;6087;48.982;12.064;2022-08-19T07:45:08;21.50;99.90
12053;DHT22;6087;48.982;12.064;2022-08-19T07:47:35;21.50;99.90
12053;DHT22;6087;48.982;12.064;2022-08-19T07:50:07;21.50;99.90
12053;DHT22;6087;48.982;12.064;2022-08-19T07:52:35;21.60;99.90
12053;DHT22;6087;48.982;12.064;2022-08-19T07:55:05;21.60;99.90
12053;DHT22;6087;48.982;12.064;2022-08-19T07:57:32;21.60;99.90
12053;DHT22;6087;48.982;12.064;2022-08-19T07:59:59;21.60;99.90
12053;DHT22;6087;48.982;12.064;2022-08-19T08:02:26;21.60;99.90
12053;DHT22;6087;48.982;12.064;2022-08-19T08:04:52;21.60;99.90
12053;DHT22;6087;48.982;12.064;2022-08-19T08:07:38;21.70;99.90
12053;DHT22;6087;48.982;12.064;2022-08-19T08:10:22;21.70;99.90
12053;DHT22;6087;48.982;12.064;2022-08-19T08:12:49;21.70;99.90
12053;DHT22;6087;48.982;12.064;2022-08-19T08:15:16;21.80;99.90
12053;DHT22;6087;48.982;12.064;2022-08-19T08:17:44;21.80;99.90
12053;DHT22;6087;48.982;12.064;2022-08-19T08:20:12;21.80;99.90
12053;DHT22;6087;48.982;12.064;2022-08-19T08:22:44;21.80;99.90
12053;DHT22;6087;48.982;12.064;2022-08-19T08:25:28;21.90;99.90
12053;DHT22;6087;48.982;12.064;2022-08-19T08:27:56;21.90;99.90
12053;DHT22;6087;48.982;12.064;2022-08-19T08:30:27;22.00;99.90
12053;DHT22;6087;48.982;12.064;2022-08-19T08:32:54;22.00;99.90
12053;DHT22;6087;48.982;12.064;2022-08-19T08:35:23;22.00;99.90
12053;DHT22;6087;48.982;12.064;2022-08-19T08:37:53;22.00;99.90
12053;DHT22;6087;48.982;12.064;2022-08-19T08:40:23;22.10;99.90
12053;DHT22;6087;48.982;12.064;2022-08-19T08:42:57;22.10;99.90
12053;DHT22;6087;48.982;12.064;2022-08-19T08:45:28;22.10;99.90
12053;DHT22;6087;48.982;12.064;2022-08-19T08:47:59;22.20;99.90
12053;DHT22;6087;48.982;12.064;2022-08-19T08:50:31;22.20;99.90
12053;DHT22;6087;48.982;12.064;2022-08-19T08:53:03;22.20;99.90
12053;DHT22;6087;48.982;12.064;2022-08-19T08:55:32;22.30;99.90
12053;DHT22;6087;48.982;12.064;2022-08-19T08:58:03;22.40;99.90
12053;DHT22;6087;48.982;12.064;2022-08-19T09:00:33;22.40;99.90
12053;DHT22;6087;48.982;12.064;2022-08-19T09:03:01;22.40;99.90
12053;DHT22;6087;48.982;12.064;2022-08-19T09:05:39;22.50;99.90
12053;DHT22;6087;48.982;12.064;2022-08-19T09:08:17;22.50;99.90
12053;DHT22;6087;48.982;12.064;2022-08-19T09:10:51;22.50;99.90
12053;DHT22;6087;48.982;12.064;2022-08-19T09:13:25;22.50;99.90
12053;DHT22;6087;48.982;12.064;2022-08-19T09:16:00;22.50;99.90
12053;DHT22;6087;48.982;12.064;2022-08-19T09:18:39;22.50;99.90
12053;DHT22;6087;48.982;12.064;2022-08-19T09:21:05;22.50;99.90
12053;DHT22;6087;48.982;12.064;2022-08-19T09:23:34;22.50;99.90
12053;DHT22;6087;48.982;12.064;2022-08-19T09:26:04;22.50;99.90
12053;DHT22;6087;48.982;12.064;2022-08-19T09:28:33;22.50;99.90
12053;DHT22;6087;48.982;12.064;2022-08-19T09:31:00;22.50;99.90
12053;DHT22;6087;48.982;12.064;2022-08-19T09:33:26;22.50;99.90
12053;DHT22;6087;48.982;12.064;2022-08-19T09:36:02;22.50;99.90
12053;DHT22;6087;48.982;12.064;2022-08-19T09:38:29;22.50;99.90
12053;DHT22;6087;48.982;12.064;2022-08-19T09:41:02;22.50;99.90
12053;DHT22;6087;48.982;12.064;2022-08-19T09:43:30;22.50;99.90
12053;DHT22;6087;48.982;12.064;2022-08-19T09:45:57;22.40;99.90
12053;DHT22;6087;48.982;12.064;2022-08-19T09:48:25;22.40;99.90
12053;DHT22;6087;48.982;12.064;2022-08-19T09:50:52;22.40;99.90
12053;DHT22;6087;48.982;12.064;2022-08-19T09:53:20;22.40;99.90
12053;DHT22;6087;48.982;12.064;2022-08-19T09:55:47;22.30;99.90
12053;DHT22;6087;48.982;12.064;2022-08-19T09:58:16;22.30;99.90
12053;DHT22;6087;48.982;12.064;2022-08-19T10:00:42;22.30;99.90
12053;DHT22;6087;48.982;12.064;2022-08-19T10:03:11;22.30;99.90
12053;DHT22;6087;48.982;12.064;2022-08-19T10:05:38;22.30;99.90
12053;DHT22;6087;48.982;12.064;2022-08-19T10:08:18;22.30;99.90
12053;DHT22;6087;48.982;12.064;2022-08-19T10:10:47;22.30;99.90
12053;DHT22;6087;48.982;12.064;2022-08-19T10:13:17;22.20;99.90
12053;DHT22;6087;48.982;12.064;2022-08-19T10:15:51;22.30;99.90
12053;DHT22;6087;48.982;12.064;2022-08-19T10:18:20;22.30;99.90
12053;DHT22;6087;48.982;12.064;2022-08-19T10:20:48;22.30;99.90
12053;DHT22;6087;48.982;12.064;2022-08-19T10:23:16;22.30;99.90
12053;DHT22;6087;48.982;12.064;2022-08-19T10:25:43;22.30;99.90
12053;DHT22;6087;48.982;12.064;2022-08-19T10:28:10;22.30;99.90
12053;DHT22;6087;48.982;12.064;2022-08-19T10:30:40;22.30;99.90
12053;DHT22;6087;48.982;12.064;2022-08-19T10:33:07;22.40;99.90
12053;DHT22;6087;48.982;12.064;2022-08-19T10:35:34;22.40;99.90
12053;DHT22;6087;48.982;12.064;2022-08-19T10:38:03;22.50;99.90
12053;DHT22;6087;48.982;12.064;2022-08-19T10:40:30;22.50;99.90
12053;DHT22;6087;48.982;12.064;2022-08-19T10:42:57;22.60;99.90
12053;DHT22;6087;48.982;12.064;2022-08-19T10:45:24;22.60;99.90
12053;DHT22;6087;48.982;12.064;2022-08-19T10:47:53;22.60;99.90
12053;DHT22;6087;48.982;12.064;2022-08-19T10:50:20;22.70;99.90
12053;DHT22;6087;48.982;12.064;2022-08-19T10:53:06;22.70;99.90
12053;DHT22;6087;48.982;12.064;2022-08-19T10:55:35;22.70;99.90
12053;DHT22;6087;48.982;12.064;2022-08-19T10:58:20;22.70;99.90
12053;DHT22;6087;48.982;12.064;2022-08-19T11:00:51;22.80;99.90
12053;DHT22;6087;48.982;12.064;2022-08-19T11:03:20;22.80;99.90
12053;DHT22;6087;48.982;12.064;2022-08-19T11:05:51;22.80;99.90
12053;DHT22;6087;48.982;12.064;2022-08-19T11:08:23;22.80;99.90
12053;DHT22;6087;48.982;12.064;2022-08-19T11:10:53;22.80;99.90
12053;DHT22;6087;48.982;12.064;2022-08-19T11:13:22;22.80;99.90
12053;DHT22;6087;48.982;12.064;2022-08-19T11:15:56;22.80;99.90
12053;DHT22;6087;48.982;12.064;2022-08-19T11:18:25;22.80;99.90
12053;DHT22;6087;48.982;12.064;2022-08-19T11:20:51;22.80;99.90
12053;DHT22;6087;48.982;12.064;2022-08-19T11:23:18;22.80;99.90
12053;DHT22;6087;48.982;12.064;2022-08-19T11:25:46;22.80;99.90
12053;DHT22;6087;48.982;12.064;2022-08-19T11:28:13;22.80;99.90
12053;DHT22;6087;48.982;12.064;2022-08-19T11:30:40;22.70;99.90
12053;DHT22;6087;48.982;12.064;2022-08-19T11:33:07;22.70;99.90
12053;DHT22;6087;48.982;12.064;2022-08-19T11:35:40;22.70;99.90
12053;DHT22;6087;48.982;12.064;2022-08-19T11:38:07;22.70;99.90
12053;DHT22;6087;48.982;12.064;2022-08-19T11:40:34;22.60;99.90
12053;DHT22;6087;48.982;12.064;2022-08-19T11:43:01;22.60;99.90
12053;DHT22;6087;48.982;12.064;2022-08-19T11:45:28;22.60;99.90
12053;DHT22;6087;48.982;12.064;2022-08-19T11:47:55;22.50;99.90
12053;DHT22;6087;48.982;12.064;2022-08-19T11:50:24;22.50;99.90
12053;DHT22;6087;48.982;12.064;2022-08-19T11:52:54;22.50;99.90
12053;DHT22;6087;48.982;12.064;2022-08-19T11:58:33;22.40;99.90
12053;DHT22;6087;48.982;12.064;2022-08-19T12:01:01;22.30;99.90
12053;DHT22;6087;48.982;12.064;2022-08-19T12:03:28;22.30;99.90
12053;DHT22;6087;48.982;12.064;2022-08-19T12:05:54;22.30;99.90
12053;DHT22;6087;48.982;12.064;2022-08-19T12:08:23;22.20;99.90
12053;DHT22;6087;48.982;12.064;2022-08-19T12:10:50;22.20;99.90
12053;DHT22;6087;48.982;12.064;2022-08-19T12:13:17;22.10;99.90
12053;DHT22;6087;48.982;12.064;2022-08-19T12:15:45;22.00;99.90
12053;DHT22;6087;48.982;12.064;2022-08-19T12:18:13;21.80;99.90
12053;DHT22;6087;48.982;12.064;2022-08-19T12:20:41;21.70;99.90
12053;DHT22;6087;48.982;12.064;2022-08-19T12:23:09;21.60;99.90
12053;DHT22;6087;48.982;12.064;2022-08-19T12:25:44;21.50;99.90
12053;DHT22;6087;48.982;12.064;2022-08-19T12:28:17;21.50;99.90
12053;DHT22;6087;48.982;12.064;2022-08-19T12:30:44;21.40;99.90
12053;DHT22;6087;48.982;12.064;2022-08-19T12:33:11;21.40;99.90
12053;DHT22;6087;48.982;12.064;2022-08-19T12:35:40;21.40;99.90
12053;DHT22;6087;48.982;12.064;2022-08-19T12:38:07;21.40;99.90
12053;DHT22;6087;48.982;12.064;2022-08-19T12:40:34;21.40;99.90
12053;DHT22;6087;48.982;12.064;2022-08-19T12:43:03;21.40;99.90
12053;DHT22;6087;48.982;12.064;2022-08-19T12:45:29;21.50;99.90
12053;DHT22;6087;48.982;12.064;2022-08-19T12:47:56;21.50;99.90
12053;DHT22;6087;48.982;12.064;2022-08-19T12:50:23;21.50;99.90
12053;DHT22;6087;48.982;12.064;2022-08-19T12:52:50;21.50;99.90
12053;DHT22;6087;48.982;12.064;2022-08-19T12:55:18;21.60;99.90
12053;DHT22;6087;48.982;12.064;2022-08-19T12:57:45;21.60;99.90
12053;DHT22;6087;48.982;12.064;2022-08-19T13:00:16;21.60;99.90
12053;DHT22;6087;48.982;12.064;2022-08-19T13:02:47;21.60;99.90
12053;DHT22;6087;48.982;12.064;2022-08-19T13:05:17;21.70;99.90
12053;DHT22;6087;48.982;12.064;2022-08-19T13:07:45;21.80;99.90
12053;DHT22;6087;48.982;12.064;2022-08-19T13:10:16;21.80;99.90
12053;DHT22;6087;48.982;12.064;2022-08-19T13:12:44;21.90;99.90
12053;DHT22;6087;48.982;12.064;2022-08-19T13:15:11;21.90;99.90
12053;DHT22;6087;48.982;12.064;2022-08-19T13:17:40;22.00;99.90
12053;DHT22;6087;48.982;12.064;2022-08-19T13:20:08;22.00;99.90
12053;DHT22;6087;48.982;12.064;2022-08-19T13:22:35;22.00;99.90
12053;DHT22;6087;48.982;12.064;2022-08-19T13:25:02;22.00;99.90
12053;DHT22;6087;48.982;12.064;2022-08-19T13:27:29;22.10;99.90
12053;DHT22;6087;48.982;12.064;2022-08-19T13:29:56;22.10;99.90
12053;DHT22;6087;48.982;12.064;2022-08-19T13:32:41;22.10;99.90
12053;DHT22;6087;48.982;12.064;2022-08-19T13:35:28;22.20;99.90
12053;DHT22;6087;48.982;12.064;2022-08-19T13:37:55;22.20;99.90
12053;DHT22;6087;48.982;12.064;2022-08-19T13:40:23;22.20;99.90
12053;DHT22;6087;48.982;12.064;2022-08-19T13:42:54;22.30;99.90
12053;DHT22;6087;48.982;12.064;2022-08-19T13:45:23;22.30;99.90
12053;DHT22;6087;48.982;12.064;2022-08-19T13:47:54;22.30;99.90
12053;DHT22;6087;48.982;12.064;2022-08-19T13:50:23;22.40;99.90
12053;DHT22;6087;48.982;12.064;2022-08-19T13:52:52;22.50;99.90
12053;DHT22;6087;48.982;12.064;2022-08-19T13:55:20;22.50;99.90
12053;DHT22;6087;48.982;12.064;2022-08-19T13:57:50;22.50;99.90
12053;DHT22;6087;48.982;12.064;2022-08-19T14:00:18;22.50;99.90
12053;DHT22;6087;48.982;12.064;2022-08-19T14:02:46;22.40;99.90
12053;DHT22;6087;48.982;12.064;2022-08-19T14:05:15;22.40;99.90
12053;DHT22;6087;48.982;12.064;2022-08-19T14:07:42;22.50;99.90
12053;DHT22;6087;48.982;12.064;2022-08-19T14:10:11;22.50;99.90
12053;DHT22;6087;48.982;12.064;2022-08-19T14:12:39;22.50;99.90
12053;DHT22;6087;48.982;12.064;2022-08-19T14:15:08;22.50;99.90
12053;DHT22;6087;48.982;12.064;2022-08-19T14:17:38;22.50;99.90
12053;DHT22;6087;48.982;12.064;2022-08-19T14:20:07;22.50;99.90
12053;DHT22;6087;48.982;12.064;2022-08-19T14:22:37;22.60;99.90
12053;DHT22;6087;48.982;12.064;2022-08-19T14:25:06;22.60;99.90
12053;DHT22;6087;48.982;12.064;2022-08-19T14:27:33;22.60;99.90
12053;DHT22;6087;48.982;12.064;2022-08-19T14:30:00;22.60;99.90
12053;DHT22;6087;48.982;12.064;2022-08-19T14:32:27;22.60;99.90
12053;DHT22;6087;48.982;12.064;2022-08-19T14:34:54;22.60;99.90
12053;DHT22;6087;48.982;12.064;2022-08-19T14:37:21;22.60;99.90
12053;DHT22;6087;48.982;12.064;2022-08-19T14:39:49;22.70;99.90
12053;DHT22;6087;48.982;12.064;2022-08-19T14:42:16;22.70;99.90
12053;DHT22;6087;48.982;12.064;2022-08-19T14:44:43;22.80;99.90
12053;DHT22;6087;48.982;12.064;2022-08-19T14:47:10;22.80;99.90
12053;DHT22;6087;48.982;12.064;2022-08-19T14:49:38;22.80;99.90
12053;DHT22;6087;48.982;12.064;2022-08-19T14:52:05;22.90;99.90
12053;DHT22;6087;48.982;12.064;2022-08-19T14:54:32;23.00;99.90
12053;DHT22;6087;48.982;12.064;2022-08-19T14:57:01;23.10;99.90
12053;DHT22;6087;48.982;12.064;2022-08-19T14:59:28;23.20;99.90
12053;DHT22;6087;48.982;12.064;2022-08-19T15:01:54;23.30;99.90
12053;DHT22;6087;48.982;12.064;2022-08-19T15:04:21;23.40;99.90
12053;DHT22;6087;48.982;12.064;2022-08-19T15:06:48;23.40;99.90
12053;DHT22;6087;48.982;12.064;2022-08-19T15:09:16;23.40;99.90
12053;DHT22;6087;48.982;12.064;2022-08-19T15:11:43;23.30;99.90
12053;DHT22;6087;48.982;12.064;2022-08-19T15:14:11;23.30;99.90
12053;DHT22;6087;48.982;12.064;2022-08-19T15:16:40;23.20;99.90
12053;DHT22;6087;48.982;12.064;2022-08-19T15:19:08;23.20;99.90
12053;DHT22;6087;48.982;12.064;2022-08-19T15:21:35;23.10;99.90
12053;DHT22;6087;48.982;12.064;2022-08-19T15:24:03;23.00;99.90
12053;DHT22;6087;48.982;12.064;2022-08-19T15:26:30;23.00;99.90
12053;DHT22;6087;48.982;12.064;2022-08-19T15:28:57;23.00;99.90
12053;DHT22;6087;48.982;12.064;2022-08-19T15:31:27;22.90;99.90
12053;DHT22;6087;48.982;12.064;2022-08-19T15:33:54;22.90;99.90
12053;DHT22;6087;48.982;12.064;2022-08-19T15:36:23;22.80;99.90
12053;DHT22;6087;48.982;12.064;2022-08-19T15:38:50;22.80;99.90
12053;DHT22;6087;48.982;12.064;2022-08-19T15:41:21;22.80;99.90
12053;DHT22;6087;48.982;12.064;2022-08-19T15:43:56;22.70;99.90
12053;DHT22;6087;48.982;12.064;2022-08-19T15:46:32;22.70;99.90
12053;DHT22;6087;48.982;12.064;2022-08-19T15:49:00;22.70;99.90